createdAt,value
2018-01-03T00:00:28.374Z,1.73
2018-01-03T00:02:56.539Z,1.40
2018-01-03T00:05:24.660Z,2.03
2018-01-03T00:07:53.584Z,1.37
2018-01-03T00:10:22.720Z,1.37
2018-01-03T00:12:51.416Z,1.47
2018-01-03T00:15:19.550Z,1.10
2018-01-03T00:17:48.642Z,1.10
2018-01-03T00:20:16.780Z,1.10
2018-01-03T00:22:44.917Z,1.30
2018-01-03T00:25:13.070Z,1.30
2018-01-03T00:27:41.207Z,1.30
2018-01-03T00:30:09.336Z,1.10
2018-01-03T00:32:37.482Z,1.20
2018-01-03T00:35:06.410Z,1.20
2018-01-03T00:37:34.529Z,1.00
2018-01-03T00:40:02.679Z,1.30
2018-01-03T00:42:30.844Z,1.20
2018-01-03T00:44:58.961Z,1.50
2018-01-03T00:47:27.104Z,1.20
2018-01-03T00:49:55.231Z,1.20
2018-01-03T00:52:23.484Z,1.07
2018-01-03T00:54:52.389Z,1.10
2018-01-03T00:57:21.301Z,1.13
2018-01-03T00:59:50.204Z,1.20
2018-01-03T01:02:18.341Z,1.50
2018-01-03T01:04:46.465Z,1.30
2018-01-03T01:07:15.372Z,1.20
2018-01-03T01:09:44.264Z,1.00
2018-01-03T01:12:12.426Z,1.10
2018-01-03T01:14:40.548Z,1.70
2018-01-03T01:17:09.473Z,1.20
2018-01-03T01:19:37.628Z,1.20
2018-01-03T01:22:05.772Z,1.10
2018-01-03T01:24:33.940Z,1.23
2018-01-03T01:27:02.097Z,1.10
2018-01-03T01:29:30.233Z,1.10
2018-01-03T01:31:59.129Z,1.30
2018-01-03T01:34:27.276Z,1.10
2018-01-03T01:36:56.164Z,1.20
2018-01-03T01:39:25.098Z,1.03
2018-01-03T01:41:53.268Z,1.23
2018-01-03T01:44:22.189Z,1.43
2018-01-03T01:46:50.412Z,1.07
2018-01-03T01:49:18.541Z,1.50
2018-01-03T01:51:47.475Z,1.00
2018-01-03T01:54:15.596Z,1.10
2018-01-03T01:56:43.743Z,1.10
2018-01-03T01:59:11.889Z,1.10
2018-01-03T02:01:40.071Z,1.00
2018-01-03T02:04:08.185Z,1.00
2018-01-03T02:06:36.340Z,1.00
2018-01-03T02:09:04.471Z,1.40
2018-01-03T02:11:32.617Z,0.90
2018-01-03T02:14:00.733Z,1.10
2018-01-03T02:16:30.110Z,0.90
2018-01-03T02:18:58.240Z,1.13
2018-01-03T02:21:26.427Z,1.00
2018-01-03T02:23:54.538Z,0.90
2018-01-03T02:26:22.680Z,0.80
2018-01-03T02:28:52.431Z,0.97
2018-01-03T02:31:21.166Z,1.10
2018-01-03T02:33:49.293Z,1.03
2018-01-03T02:36:17.422Z,1.10
2018-01-03T02:38:46.144Z,1.10
2018-01-03T02:41:14.281Z,1.13
2018-01-03T02:43:43.339Z,0.90
2018-01-03T02:46:11.464Z,1.00
2018-01-03T02:48:39.608Z,0.90
2018-01-03T02:51:07.752Z,1.00
2018-01-03T02:53:35.896Z,0.90
2018-01-03T02:56:04.813Z,1.27
2018-01-03T02:58:33.720Z,0.80
2018-01-03T03:01:02.604Z,1.20
2018-01-03T03:03:31.509Z,1.00
2018-01-03T03:06:01.203Z,1.23
2018-01-03T03:08:29.349Z,1.20
2018-01-03T03:10:57.480Z,0.90
2018-01-03T03:13:25.618Z,1.10
2018-01-03T03:15:53.783Z,1.03
2018-01-03T03:18:22.684Z,1.07
2018-01-03T03:20:51.588Z,1.00
2018-01-03T03:23:20.501Z,1.20
2018-01-03T03:25:49.398Z,1.20
2018-01-03T03:28:18.318Z,1.00
2018-01-03T03:30:46.432Z,0.90
2018-01-03T03:33:14.629Z,0.90
2018-01-03T03:35:42.751Z,0.90
2018-01-03T03:38:11.658Z,1.00
2018-01-03T03:40:40.563Z,1.10
2018-01-03T03:43:09.553Z,1.00
2018-01-03T03:45:37.699Z,1.20
2018-01-03T03:48:05.836Z,0.93
2018-01-03T03:50:34.013Z,1.00
2018-01-03T03:53:02.153Z,1.10
2018-01-03T03:55:30.301Z,1.00
2018-01-03T03:57:59.195Z,1.00
2018-01-03T04:00:29.077Z,1.07
2018-01-03T04:02:57.198Z,1.00
2018-01-03T04:05:25.349Z,0.90
2018-01-03T04:07:53.485Z,1.03
2018-01-03T04:10:22.418Z,1.00
2018-01-03T04:12:50.552Z,0.90
2018-01-03T04:15:18.716Z,0.97
2018-01-03T04:17:46.852Z,0.90
2018-01-03T04:20:15.769Z,1.10
2018-01-03T04:22:43.922Z,1.00
2018-01-03T04:25:12.063Z,1.00
2018-01-03T04:27:40.196Z,0.90
2018-01-03T04:30:09.127Z,0.93
2018-01-03T04:32:38.056Z,1.00
2018-01-03T04:35:06.243Z,1.00
2018-01-03T04:37:34.383Z,0.90
2018-01-03T04:40:02.497Z,1.50
2018-01-03T04:42:30.647Z,1.10
2018-01-03T04:44:58.820Z,0.80
2018-01-03T04:47:27.066Z,1.17
2018-01-03T04:49:55.237Z,1.00
2018-01-03T04:52:24.126Z,1.20
2018-01-03T04:54:53.037Z,1.00
2018-01-03T04:57:21.959Z,1.30
2018-01-03T04:59:50.085Z,1.10
2018-01-03T05:02:18.230Z,0.90
2018-01-03T05:04:47.176Z,0.90
2018-01-03T05:07:15.311Z,1.13
2018-01-03T05:09:43.455Z,0.80
2018-01-03T05:12:11.595Z,0.93
2018-01-03T05:14:39.754Z,0.80
2018-01-03T05:17:07.873Z,0.83
2018-01-03T05:19:36.021Z,0.80
2018-01-03T05:22:04.917Z,1.00
2018-01-03T05:24:33.839Z,0.90
2018-01-03T05:27:02.737Z,1.00
2018-01-03T05:29:31.664Z,1.00
2018-01-03T05:32:00.565Z,0.87
2018-01-03T05:34:28.728Z,0.80
2018-01-03T05:36:56.858Z,0.80
2018-01-03T05:39:24.976Z,0.90
2018-01-03T05:41:53.796Z,0.90
2018-01-03T05:44:21.916Z,1.13
2018-01-03T05:46:50.056Z,0.87
2018-01-03T05:49:19.708Z,0.90
2018-01-03T05:51:47.876Z,0.90
2018-01-03T05:54:16.860Z,0.80
2018-01-03T05:56:45.011Z,0.90
2018-01-03T05:59:13.692Z,1.00
2018-01-03T06:01:42.596Z,0.90
2018-01-03T06:04:10.755Z,0.83
2018-01-03T06:06:38.898Z,0.90
2018-01-03T06:09:07.036Z,1.63
2018-01-03T06:11:35.211Z,1.20
2018-01-03T06:14:03.344Z,0.93
2018-01-03T06:16:32.521Z,1.00
2018-01-03T06:19:01.477Z,0.90
2018-01-03T06:21:29.616Z,1.00
2018-01-03T06:23:58.541Z,0.90
2018-01-03T06:26:26.700Z,1.00
2018-01-03T06:28:55.628Z,1.00
2018-01-03T06:31:24.537Z,1.00
2018-01-03T06:33:53.450Z,1.00
2018-01-03T06:36:22.420Z,1.00
2018-01-03T06:38:51.348Z,0.90
2018-01-03T06:41:19.492Z,1.30
2018-01-03T06:43:49.791Z,1.13
2018-01-03T06:46:17.941Z,1.30
2018-01-03T06:48:46.101Z,1.03
2018-01-03T06:51:14.247Z,0.90
2018-01-03T06:53:42.413Z,1.00
2018-01-03T06:56:10.547Z,1.07
2018-01-03T06:58:38.686Z,1.40
2018-01-03T07:01:06.832Z,1.00
2018-01-03T07:03:34.981Z,1.10
2018-01-03T07:06:03.131Z,1.20
2018-01-03T07:08:31.262Z,1.60
2018-01-03T07:10:59.412Z,0.93
2018-01-03T07:13:27.564Z,1.10
2018-01-03T07:15:55.694Z,1.40
2018-01-03T07:18:23.859Z,0.90
2018-01-03T07:20:53.697Z,1.40
2018-01-03T07:23:21.868Z,0.97
2018-01-03T07:25:50.758Z,1.40
2018-01-03T07:28:19.490Z,1.43
2018-01-03T07:30:47.625Z,1.13
2018-01-03T07:33:15.780Z,1.40
2018-01-03T07:35:43.938Z,1.20
2018-01-03T07:38:12.080Z,1.10
2018-01-03T07:40:40.227Z,1.20
2018-01-03T07:43:08.374Z,1.40
2018-01-03T07:45:36.519Z,1.20
2018-01-03T07:48:04.668Z,1.20
2018-01-03T07:50:32.790Z,1.20
2018-01-03T07:53:00.957Z,1.40
2018-01-03T07:55:29.084Z,1.50
2018-01-03T07:57:57.248Z,1.17
2018-01-03T08:00:25.372Z,1.30
2018-01-03T08:02:53.540Z,1.70
2018-01-03T08:05:21.710Z,1.40
2018-01-03T08:07:49.841Z,1.37
2018-01-03T08:10:17.997Z,1.30
2018-01-03T08:12:46.163Z,1.63
2018-01-03T08:15:14.317Z,1.70
2018-01-03T08:17:42.455Z,1.93
2018-01-03T08:20:10.674Z,1.77
2018-01-03T08:22:38.763Z,1.70
2018-01-03T08:25:06.907Z,1.80
2018-01-03T08:27:35.044Z,2.07
2018-01-03T08:30:03.246Z,1.47
2018-01-03T08:32:31.358Z,1.20
2018-01-03T08:34:59.515Z,1.60
2018-01-03T08:37:28.413Z,1.47
2018-01-03T08:39:56.560Z,2.60
2018-01-03T08:42:25.483Z,1.50
2018-01-03T08:44:54.364Z,1.53
2018-01-03T08:47:22.509Z,1.90
2018-01-03T08:49:50.631Z,1.60
2018-01-03T08:52:18.805Z,1.60
2018-01-03T08:54:47.852Z,1.47
2018-01-03T08:57:16.763Z,1.33
2018-01-03T08:59:44.892Z,1.87
2018-01-03T09:02:13.025Z,1.40
2018-01-03T09:04:41.937Z,1.80
2018-01-03T09:07:10.824Z,1.67
2018-01-03T09:09:39.748Z,1.40
2018-01-03T09:12:07.879Z,1.47
2018-01-03T09:14:36.786Z,1.37
2018-01-03T09:17:05.676Z,1.20
2018-01-03T09:19:33.836Z,1.13
2018-01-03T09:22:01.948Z,1.20
2018-01-03T09:24:30.096Z,1.30
2018-01-03T09:26:58.232Z,1.23
2018-01-03T09:29:26.396Z,1.23
2018-01-03T09:31:55.841Z,1.20
2018-01-03T09:34:23.981Z,1.20
2018-01-03T09:36:52.886Z,1.57
2018-01-03T09:39:21.929Z,1.37
2018-01-03T09:41:50.095Z,1.53
2018-01-03T09:44:18.242Z,1.03
2018-01-03T09:46:47.149Z,1.70
2018-01-03T09:49:16.060Z,1.30
2018-01-03T09:51:44.249Z,1.30
2018-01-03T09:54:13.148Z,1.10
2018-01-03T09:56:41.283Z,1.20
2018-01-03T09:59:09.420Z,1.13
2018-01-03T10:01:37.587Z,1.10
2018-01-03T10:04:06.505Z,1.30
2018-01-03T10:06:35.404Z,1.20
2018-01-03T10:09:04.316Z,1.20
2018-01-03T10:11:33.227Z,1.27
2018-01-03T10:14:01.385Z,1.20
2018-01-03T10:16:30.347Z,1.27
2018-01-03T10:18:58.472Z,1.17
2018-01-03T10:21:26.612Z,1.10
2018-01-03T10:23:54.780Z,1.23
2018-01-03T10:26:22.949Z,1.40
2018-01-03T10:28:51.867Z,1.20
2018-01-03T10:31:20.000Z,1.13
2018-01-03T10:33:48.153Z,1.30
2018-01-03T10:36:16.292Z,1.27
2018-01-03T10:38:46.113Z,1.20
2018-01-03T10:41:14.277Z,1.30
2018-01-03T10:43:42.444Z,1.80
2018-01-03T10:46:10.569Z,1.50
2018-01-03T10:48:38.689Z,1.90
2018-01-03T10:51:06.844Z,2.27
2018-01-03T10:53:34.976Z,1.67
2018-01-03T10:56:03.088Z,1.17
2018-01-03T10:58:32.037Z,1.63
2018-01-03T11:01:00.165Z,2.50
2018-01-03T11:03:32.304Z,1.73
2018-01-03T11:06:01.213Z,1.57
2018-01-03T11:08:30.107Z,1.60
2018-01-03T11:10:59.000Z,1.50
2018-01-03T11:13:28.076Z,3.00
2018-01-03T11:15:57.240Z,1.47
2018-01-03T11:18:26.176Z,1.30
2018-01-03T11:20:54.319Z,1.40
2018-01-03T11:23:22.457Z,1.40
2018-01-03T11:25:50.605Z,1.83
2018-01-03T11:28:19.493Z,2.17
2018-01-03T11:30:47.660Z,1.80
2018-01-03T11:33:15.801Z,1.53
2018-01-03T11:35:43.954Z,2.17
2018-01-03T11:38:12.109Z,1.97
2018-01-03T11:40:40.994Z,1.80
2018-01-03T11:43:09.149Z,2.00
2018-01-03T11:45:37.288Z,2.50
2018-01-03T11:48:05.461Z,2.13
2018-01-03T11:50:33.588Z,2.40
2018-01-03T11:53:02.508Z,2.50
2018-01-03T11:55:30.670Z,2.47
2018-01-03T11:57:59.594Z,2.67
2018-01-03T12:00:27.741Z,2.77
2018-01-03T12:02:56.901Z,2.27
2018-01-03T12:05:25.167Z,1.80
2018-01-03T12:07:54.063Z,2.20
2018-01-03T12:10:22.199Z,1.77
2018-01-03T12:12:50.332Z,1.93
2018-01-03T12:15:19.266Z,2.30
2018-01-03T12:17:47.402Z,1.80
2018-01-03T12:20:15.558Z,2.60
2018-01-03T12:22:44.230Z,2.70
2018-01-03T12:25:12.381Z,1.93
2018-01-03T12:27:40.498Z,1.60
2018-01-03T12:30:08.680Z,1.70
2018-01-03T12:32:38.402Z,2.30
2018-01-03T12:35:07.313Z,1.50
2018-01-03T12:37:35.468Z,1.63
2018-01-03T12:40:03.602Z,1.50
2018-01-03T12:42:31.785Z,1.83
2018-01-03T12:44:59.925Z,2.00
2018-01-03T12:47:28.072Z,2.40
2018-01-03T12:49:56.212Z,2.40
2018-01-03T12:52:24.361Z,1.60
2018-01-03T12:54:52.535Z,2.33
2018-01-03T12:57:20.664Z,1.67
2018-01-03T12:59:49.576Z,1.40
2018-01-03T13:02:18.495Z,1.50
2018-01-03T13:04:46.718Z,1.60
2018-01-03T13:07:14.868Z,1.40
2018-01-03T13:09:43.853Z,1.57
2018-01-03T13:12:11.993Z,2.17
2018-01-03T13:14:40.150Z,2.27
2018-01-03T13:17:08.281Z,1.70
2018-01-03T13:19:36.420Z,1.90
2018-01-03T13:22:04.587Z,2.63
2018-01-03T13:24:33.513Z,2.60
2018-01-03T13:27:02.453Z,2.50
2018-01-03T13:29:30.612Z,3.23
2018-01-03T13:31:59.537Z,4.10
2018-01-03T13:34:27.681Z,2.70
2018-01-03T13:36:56.585Z,2.77
2018-01-03T13:39:25.506Z,3.87
2018-01-03T13:41:53.659Z,3.10
2018-01-03T13:44:21.826Z,4.00
2018-01-03T13:46:49.969Z,3.20
2018-01-03T13:49:18.093Z,3.13
2018-01-03T13:51:46.273Z,3.40
2018-01-03T13:54:15.192Z,3.70
2018-01-03T13:56:43.332Z,3.20
2018-01-03T13:59:11.479Z,4.03
2018-01-03T14:01:40.389Z,5.27
2018-01-03T14:04:09.305Z,4.23
2018-01-03T14:06:38.209Z,3.10
2018-01-03T14:09:06.376Z,3.40
2018-01-03T14:11:35.304Z,3.30
2018-01-03T14:14:03.473Z,4.33
2018-01-03T14:16:32.412Z,3.60
2018-01-03T14:19:00.563Z,4.13
2018-01-03T14:21:29.489Z,3.60
2018-01-03T14:23:57.679Z,3.87
2018-01-03T14:26:25.853Z,4.50
2018-01-03T14:28:54.783Z,4.10
2018-01-03T14:31:23.021Z,4.47
2018-01-03T14:33:51.195Z,4.93
2018-01-03T14:36:19.356Z,4.10
2018-01-03T14:38:47.513Z,4.30
2018-01-03T14:41:15.653Z,3.13
2018-01-03T14:43:43.808Z,3.07
2018-01-03T14:46:11.990Z,3.07
2018-01-03T14:48:40.165Z,3.80
2018-01-03T14:51:08.334Z,3.07
2018-01-03T14:53:37.216Z,2.93
2018-01-03T14:56:05.365Z,3.37
2018-01-03T14:58:33.505Z,3.40
2018-01-03T15:01:02.424Z,4.40
2018-01-03T15:03:31.327Z,3.80
2018-01-03T15:06:00.220Z,3.77
2018-01-03T15:08:29.146Z,3.87
2018-01-03T15:10:57.314Z,4.10
2018-01-03T15:13:26.209Z,5.00
2018-01-03T15:15:55.126Z,3.17
2018-01-03T15:18:24.041Z,3.70
2018-01-03T15:20:52.314Z,3.70
2018-01-03T15:23:21.304Z,3.70
2018-01-03T15:25:49.392Z,2.80
2018-01-03T15:28:19.054Z,3.97
2018-01-03T15:30:47.188Z,3.37
2018-01-03T15:33:16.089Z,3.30
2018-01-03T15:35:44.270Z,3.90
2018-01-03T15:38:12.423Z,4.17
2018-01-03T15:40:40.582Z,3.17
2018-01-03T15:43:08.730Z,4.03
2018-01-03T15:45:37.745Z,4.20
2018-01-03T15:48:06.341Z,3.77
2018-01-03T15:50:34.510Z,3.03
2018-01-03T15:53:02.674Z,4.53
2018-01-03T15:55:30.857Z,3.73
2018-01-03T15:57:59.005Z,3.30
2018-01-03T16:00:27.927Z,3.60
2018-01-03T16:02:56.875Z,4.00
2018-01-03T16:05:25.841Z,4.10
2018-01-03T16:07:53.981Z,4.20
2018-01-03T16:10:22.159Z,4.27
2018-01-03T16:12:50.282Z,4.00
2018-01-03T16:15:19.182Z,3.23
2018-01-03T16:17:48.117Z,3.60
2018-01-03T16:20:16.274Z,3.70
2018-01-03T16:22:44.450Z,3.10
2018-01-03T16:25:13.362Z,3.47
2018-01-03T16:27:42.294Z,4.10
2018-01-03T16:30:10.436Z,5.80
2018-01-03T16:32:38.595Z,4.10
2018-01-03T16:35:06.751Z,4.57
2018-01-03T16:37:35.005Z,4.67
2018-01-03T16:40:03.185Z,5.57
2018-01-03T16:42:32.114Z,4.13
2018-01-03T16:45:01.152Z,4.63
2018-01-03T16:47:29.298Z,4.40
2018-01-03T16:49:58.214Z,4.10
2018-01-03T16:52:32.920Z,4.00
2018-01-03T16:55:01.053Z,5.27
2018-01-03T16:57:29.232Z,4.60
2018-01-03T16:59:57.434Z,4.43
2018-01-03T17:02:25.552Z,3.80
2018-01-03T17:04:53.742Z,5.27
2018-01-03T17:07:21.887Z,8.73
2018-01-03T17:09:50.049Z,4.60
2018-01-03T17:12:18.247Z,4.90
2018-01-03T17:14:46.408Z,4.50
2018-01-03T17:17:15.333Z,4.20
2018-01-03T17:19:43.483Z,4.50
2018-01-03T17:22:11.654Z,5.10
2018-01-03T17:24:39.833Z,4.33
2018-01-03T17:27:08.050Z,5.13
2018-01-03T17:29:36.191Z,4.47
2018-01-03T17:32:04.456Z,4.53
2018-01-03T17:34:32.842Z,3.77
2018-01-03T17:37:01.003Z,4.13
2018-01-03T17:39:29.204Z,4.97
2018-01-03T17:41:58.117Z,4.40
2018-01-03T17:44:26.286Z,4.87
2018-01-03T17:46:54.451Z,5.27
2018-01-03T17:49:22.583Z,4.70
2018-01-03T17:51:50.774Z,4.53
2018-01-03T17:54:18.949Z,4.30
2018-01-03T17:56:47.139Z,4.80
2018-01-03T17:59:16.922Z,5.57
2018-01-03T18:01:45.114Z,5.40
2018-01-03T18:04:13.269Z,4.67
2018-01-03T18:06:41.428Z,5.87
2018-01-03T18:09:10.340Z,3.73
2018-01-03T18:11:38.509Z,5.73
2018-01-03T18:14:06.660Z,5.60
2018-01-03T18:16:34.855Z,4.13
2018-01-03T18:19:03.033Z,4.47
2018-01-03T18:21:31.157Z,4.93
2018-01-03T18:23:59.344Z,4.50
2018-01-03T18:26:29.771Z,4.30
2018-01-03T18:28:58.686Z,4.33
2018-01-03T18:31:29.199Z,4.80
2018-01-03T18:33:57.358Z,4.70
2018-01-03T18:36:25.536Z,5.30
2018-01-03T18:38:53.673Z,5.00
2018-01-03T18:41:22.625Z,4.73
2018-01-03T18:43:50.812Z,4.77
2018-01-03T18:46:18.975Z,4.60
2018-01-03T18:48:47.870Z,5.10
2018-01-03T18:51:16.021Z,5.27
2018-01-03T18:53:44.173Z,4.03
2018-01-03T18:56:13.188Z,4.50
2018-01-03T18:58:41.352Z,4.50
2018-01-03T19:01:09.497Z,4.83
2018-01-03T19:03:38.456Z,4.23
2018-01-03T19:06:06.653Z,5.37
2018-01-03T19:08:34.807Z,5.20
2018-01-03T19:11:03.734Z,4.67
2018-01-03T19:13:31.890Z,4.77
2018-01-03T19:16:00.041Z,4.50
2018-01-03T19:18:28.185Z,4.67
2018-01-03T19:20:56.336Z,4.13
2018-01-03T19:23:25.273Z,5.23
2018-01-03T19:25:53.429Z,3.80
2018-01-03T19:28:21.628Z,4.27
2018-01-03T19:30:50.549Z,5.00
2018-01-03T19:33:18.707Z,3.93
2018-01-03T19:35:46.871Z,5.03
2018-01-03T19:38:15.037Z,4.87
2018-01-03T19:40:43.721Z,4.27
2018-01-03T19:43:11.897Z,4.40
2018-01-03T19:45:40.132Z,3.80
2018-01-03T19:48:08.300Z,4.07
2018-01-03T19:50:36.440Z,4.53
2018-01-03T19:53:05.475Z,4.27
2018-01-03T19:55:35.452Z,5.10
2018-01-03T19:58:04.389Z,5.80
2018-01-03T20:00:32.546Z,4.47
2018-01-03T20:03:01.488Z,5.10
2018-01-03T20:05:29.651Z,4.50
2018-01-03T20:07:58.587Z,4.93
2018-01-03T20:10:26.728Z,4.70
2018-01-03T20:12:55.654Z,5.63
2018-01-03T20:15:23.816Z,6.63
2018-01-03T20:17:54.857Z,5.40
2018-01-03T20:20:23.040Z,4.90
2018-01-03T20:22:51.197Z,4.67
2018-01-03T20:25:20.160Z,4.60
2018-01-03T20:27:48.305Z,5.80
2018-01-03T20:30:16.466Z,5.00
2018-01-03T20:32:45.118Z,5.90
2018-01-03T20:35:14.023Z,4.67
2018-01-03T20:37:43.628Z,5.50
2018-01-03T20:40:12.579Z,7.83
2018-01-03T20:42:40.718Z,9.20
2018-01-03T20:45:08.910Z,5.90
2018-01-03T20:47:37.065Z,6.50
2018-01-03T20:50:05.236Z,5.10
2018-01-03T20:52:33.388Z,4.13
2018-01-03T20:55:02.326Z,6.43
2018-01-03T20:57:30.489Z,5.30
2018-01-03T20:59:59.416Z,6.50
2018-01-03T21:02:27.586Z,5.77
2018-01-03T21:04:55.750Z,7.23
2018-01-03T21:07:24.686Z,6.10
2018-01-03T21:09:53.604Z,5.60
2018-01-03T21:12:22.583Z,5.20
2018-01-03T21:14:50.761Z,7.97
2018-01-03T21:17:18.916Z,5.30
2018-01-03T21:19:47.334Z,5.07
2018-01-03T21:22:16.249Z,6.00
2018-01-03T21:24:45.718Z,5.03
2018-01-03T21:27:13.876Z,5.00
2018-01-03T21:29:42.016Z,6.07
2018-01-03T21:32:10.179Z,5.43
2018-01-03T21:34:38.344Z,6.37
2018-01-03T21:37:06.510Z,4.67
2018-01-03T21:39:34.675Z,5.30
2018-01-03T21:42:03.635Z,5.63
2018-01-03T21:44:32.718Z,5.37
2018-01-03T21:47:00.883Z,4.63
2018-01-03T21:49:29.067Z,6.60
2018-01-03T21:51:57.985Z,4.97
2018-01-03T21:54:26.160Z,5.40
2018-01-03T21:56:54.340Z,6.40
2018-01-03T21:59:22.498Z,5.90
2018-01-03T22:01:50.654Z,5.00
2018-01-03T22:04:18.816Z,4.53
2018-01-03T22:06:46.971Z,4.87
2018-01-03T22:09:15.128Z,4.40
2018-01-03T22:11:43.257Z,4.20
2018-01-03T22:14:11.441Z,3.90
2018-01-03T22:16:40.338Z,4.07
2018-01-03T22:19:09.264Z,4.03
2018-01-03T22:21:37.410Z,3.93
2018-01-03T22:24:06.532Z,4.53
2018-01-03T22:26:34.790Z,4.10
2018-01-03T22:29:02.921Z,3.83
2018-01-03T22:31:31.073Z,3.80
2018-01-03T22:34:00.008Z,4.37
2018-01-03T22:36:28.928Z,4.70
2018-01-03T22:38:57.903Z,4.63
2018-01-03T22:41:26.061Z,5.60
2018-01-03T22:43:54.210Z,5.23
2018-01-03T22:46:23.151Z,4.40
2018-01-03T22:48:51.389Z,4.40
2018-01-03T22:51:19.551Z,5.43
2018-01-03T22:53:48.459Z,5.13
2018-01-03T22:56:17.503Z,4.80
2018-01-03T22:58:45.649Z,5.83
2018-01-03T23:01:14.576Z,6.60
2018-01-03T23:03:42.718Z,5.40
2018-01-03T23:06:10.865Z,6.03
2018-01-03T23:08:39.030Z,5.37
2018-01-03T23:11:07.921Z,6.43
2018-01-03T23:13:36.825Z,5.93
2018-01-03T23:16:05.754Z,7.10
2018-01-03T23:18:33.926Z,6.77
2018-01-03T23:21:02.090Z,6.27
2018-01-03T23:23:30.996Z,8.27
2018-01-03T23:25:59.154Z,5.50
2018-01-03T23:28:27.294Z,5.37
2018-01-03T23:30:55.452Z,6.07
2018-01-03T23:33:23.579Z,4.90
2018-01-03T23:35:52.511Z,5.03
2018-01-03T23:38:21.397Z,5.33
2018-01-03T23:40:49.542Z,5.60
2018-01-03T23:43:18.467Z,5.57
2018-01-03T23:45:46.600Z,5.17
2018-01-03T23:48:14.786Z,3.73
2018-01-03T23:50:42.893Z,4.90
2018-01-03T23:53:11.814Z,5.30
2018-01-03T23:55:40.693Z,5.03
2018-01-03T23:58:08.864Z,5.93
